Data for 04/07/2014

Time Sea-Level Adjusted Pressure Absolute Pressure Temperature Relative Humidity Dew Point   
(mb) (inHg) (mb) (inHg) (C) (F) (%) (C) (F)
00:05 1022 30.18 852 25.16 3.9 39 50 -5.7 21.7
00:10 1022 30.18 852 25.16 3.9 39 50 -5.6 21.9
00:15 1022 30.18 852 25.16 3.8 38.9 51 -5.5 22.2
00:20 1022 30.18 852 25.16 3.9 39 49 -5.9 21.3
00:25 1022 30.18 852 25.16 4 39.2 49 -5.8 21.6
00:30 1022 30.18 852 25.16 3.9 39 50 -5.7 21.7
00:35 1022 30.18 852 25.16 3.6 38.5 50 -5.8 21.6
00:40 1022 30.18 852 25.16 3.3 37.9 52 -5.6 21.9
00:45 1022 30.18 852 25.16 3.2 37.7 54 -5.2 22.6
00:50 1023 30.21 852 25.16 3 37.5 54 -5.3 22.4
00:55 1023 30.21 852 25.16 2.8 37.1 57 -4.9 23.1
01:00 1023 30.21 852 25.16 2.4 36.3 61 -4.5 23.9
01:05 1023 30.21 852 25.16 2 35.6 62 -4.6 23.8
01:10 1023 30.21 852 25.16 1.9 35.4 63 -4.5 23.9
01:15 1023 30.21 852 25.16 2.1 35.9 57 -5.5 22.2
01:20 1023 30.21 852 25.16 2.6 36.7 56 -5.2 22.7
01:25 1023 30.21 852 25.16 2.5 36.5 58 -4.9 23.1
01:30 1023 30.21 852 25.16 2.3 36.2 59 -4.8 23.4
01:35 1022 30.18 852 25.16 2.3 36.2 59 -4.9 23.1
01:40 1022 30.18 852 25.16 2.5 36.5 58 -5 23.1
01:45 1022 30.18 852 25.16 2.7 36.8 57 -5.1 22.9
01:50 1022 30.18 852 25.16 2.8 37.1 56 -5.2 22.7
01:55 1022 30.18 852 25.16 2.9 37.2 55 -5.2 22.7
02:00 1023 30.21 852 25.16 2.9 37.3 56 -5.1 22.8
02:05 1022 30.18 852 25.16 2.9 37.2 56 -5.1 22.9
02:10 1022 30.18 852 25.16 2.8 37 56 -5.1 22.8
02:15 1023 30.21 852 25.16 2.8 37 56 -5.2 22.7
02:20 1023 30.21 852 25.16 2.8 37.1 56 -5.2 22.6
02:25 1023 30.21 852 25.16 2.8 37 56 -5.2 22.6
02:30 1023 30.21 852 25.16 2.8 37.1 55 -5.3 22.5
02:35 1023 30.21 852 25.16 2.9 37.3 55 -5.3 22.5
02:40 1023 30.21 852 25.16 3.1 37.6 54 -5.2 22.6
02:45 1023 30.21 852 25.16 3.2 37.8 53 -5.3 22.4
02:50 1023 30.21 852 25.16 3.3 38 54 -5.2 22.6
02:55 1023 30.21 852 25.16 3.4 38.1 53 -5.3 22.4
03:00 1023 30.21 852 25.16 3.5 38.4 52 -5.4 22.3
03:05 1023 30.21 852 25.16 3.6 38.5 52 -5.2 22.7
03:10 1023 30.21 852 25.16 3.6 38.5 53 -5.1 22.8
03:15 1023 30.21 852 25.16 3.5 38.3 55 -4.8 23.4
03:20 1023 30.21 852 25.16 3.3 37.9 55 -4.8 23.3
03:25 1023 30.21 852 25.16 3.1 37.6 57 -4.7 23.6
03:30 1023 30.21 852 25.16 3 37.5 56 -4.8 23.3
03:35 1023 30.21 852 25.16 3.1 37.6 56 -4.8 23.3
03:40 1023 30.21 852 25.16 3.1 37.6 56 -4.9 23.2
03:45 1023 30.21 852 25.16 3.2 37.7 55 -5 22.9
03:50 1023 30.21 852 25.16 3.3 37.9 54 -5 22.9
03:55 1023 30.21 852 25.16 3.5 38.2 52 -5.4 22.3
04:00 1023 30.21 852 25.16 3.8 38.8 51 -5.4 22.2
04:05 1023 30.21 852 25.16 3.8 38.9 52 -5.1 22.9
04:10 1023 30.21 852 25.16 3.6 38.5 53 -5 23.1
04:15 1023 30.21 852 25.16 3.5 38.3 53 -5.1 22.8
04:20 1023 30.21 852 25.16 3.5 38.3 54 -5 22.9
04:25 1023 30.21 852 25.16 3.2 37.8 56 -4.7 23.5
04:30 1023 30.21 852 25.16 2.8 37 57 -4.9 23.2
04:35 1023 30.21 852 25.16 2.7 36.9 57 -4.9 23.1
04:40 1023 30.21 853 25.19 3 37.4 52 -6 21.2
04:45 1023 30.21 853 25.19 3.5 38.2 52 -5.4 22.4
04:50 1023 30.21 853 25.19 3.3 38 54 -5.1 22.8
04:55 1023 30.21 853 25.19 3.1 37.7 54 -5.4 22.4
05:00 1023 30.21 853 25.19 3.2 37.8 52 -5.7 21.7
05:05 1023 30.21 853 25.19 3.4 38.1 52 -5.6 21.9
05:10 1023 30.21 853 25.19 3.4 38.1 51 -5.8 21.5
05:15 1023 30.21 853 25.19 3.6 38.4 50 -5.8 21.5
05:20 1023 30.21 853 25.19 3.7 38.7 50 -5.8 21.5
05:25 1023 30.21 853 25.19 3.8 38.9 50 -5.8 21.6
05:30 1023 30.21 853 25.19 3.8 38.8 50 -5.8 21.6
05:35 1023 30.21 853 25.19 3.8 38.8 50 -5.7 21.8
05:40 1023 30.21 853 25.19 3.8 38.8 51 -5.5 22
05:45 1023 30.21 853 25.19 3.7 38.6 51 -5.5 22
05:50 1023 30.21 853 25.19 3.5 38.4 52 -5.3 22.5
05:55 1023 30.21 853 25.19 3.4 38.1 54 -5.2 22.7
06:00 1023 30.21 853 25.19 3.3 37.9 54 -5.2 22.6
06:05 1023 30.21 853 25.19 3.3 38 51 -5.9 21.5
06:10 1023 30.21 853 25.19 3.6 38.4 50 -5.9 21.4
06:15 1023 30.21 853 25.19 3.7 38.7 49 -6.1 21.1
06:20 1023 30.21 853 25.19 3.9 39 49 -6 21.3
06:25 1024 30.24 853 25.19 3.9 39 49 -5.8 21.5
06:30 1024 30.24 853 25.19 3.8 38.9 49 -5.9 21.4
06:35 1024 30.24 853 25.19 3.9 39 49 -5.9 21.3
06:40 1024 30.24 853 25.19 4 39.2 48 -6 21.3
06:45 1024 30.24 853 25.19 4.2 39.6 47 -6 21.2
06:50 1024 30.24 853 25.19 4.2 39.6 48 -5.9 21.4
06:55 1024 30.24 853 25.19 4.2 39.5 48 -5.8 21.5
07:00 1024 30.24 853 25.19 4.2 39.5 48 -5.9 21.4
07:05 1024 30.24 853 25.19 4.2 39.6 47 -6 21.2
07:10 1024 30.24 853 25.19 4.3 39.7 47 -6.1 21
07:15 1024 30.24 853 25.19 4.4 39.9 47 -6.1 21
07:20 1024 30.24 853 25.19 4.4 39.9 47 -6 21.2
07:25 1024 30.24 853 25.19 4.4 39.8 47 -6 21.1
07:30 1024 30.24 853 25.19 4.4 39.9 47 -5.9 21.5
07:35 1024 30.24 853 25.19 4.4 39.9 48 -5.6 21.9
07:40 1024 30.24 853 25.19 4.5 40.1 48 -5.6 22
07:45 1024 30.24 853 25.19 4.6 40.3 48 -5.6 22
07:50 1024 30.24 853 25.19 4.7 40.5 46 -5.8 21.6
07:55 1024 30.24 853 25.19 4.8 40.6 46 -5.9 21.4
08:00 1024 30.24 853 25.19 4.9 40.8 45 -6.1 20.9
08:05 1024 30.24 853 25.19 5 41 44 -6.1 21
08:10 1024 30.24 853 25.19 5 41.1 45 -5.9 21.5
08:15 1024 30.24 853 25.19 5 41.1 45 -5.8 21.6
08:20 1024 30.24 853 25.19 5 41 46 -5.7 21.7
08:25 1024 30.24 853 25.19 5.1 41.1 46 -5.7 21.7
08:30 1024 30.24 853 25.19 5.1 41.2 46 -5.4 22.2
08:35 1024 30.24 853 25.19 5.3 41.5 45 -5.6 21.8
08:40 1024 30.24 853 25.19 5.4 41.7 46 -5.3 22.4
08:45 1024 30.24 853 25.19 5.6 42.1 46 -5.2 22.6
08:50 1024 30.24 853 25.19 5.9 42.7 45 -5.1 22.8
08:55 1024 30.24 853 25.19 6.2 43.2 44 -5.2 22.7
09:00 1024 30.24 853 25.19 6.5 43.7 44 -4.8 23.4
09:05 1024 30.24 853 25.19 6.7 44 45 -4.5 23.9
09:10 1024 30.24 853 25.19 6.8 44.2 45 -4.4 24.1
09:15 1024 30.24 853 25.19 7 44.7 44 -4.3 24.3
09:20 1024 30.24 853 25.19 7.3 45.1 44 -4.2 24.4
09:25 1024 30.24 853 25.19 7.4 45.3 44 -3.9 24.9
09:30 1024 30.24 853 25.19 7.2 44.9 45 -3.9 24.9
09:35 1024 30.24 853 25.19 6.4 43.5 46 -4.3 24.3
09:40 1024 30.24 853 25.19 6.6 43.9 46 -4.3 24.3
09:45 1024 30.24 853 25.19 6.6 43.9 46 -4.2 24.5
09:50 1024 30.24 853 25.19 6.6 43.9 46 -4.1 24.7
09:55 1024 30.24 853 25.19 6.8 44.3 45 -4.3 24.2
10:00 1024 30.24 853 25.19 7.2 44.9 44 -4.2 24.4
10:05 1024 30.24 853 25.19 7.1 44.7 44 -4.4 24.2
10:10 1024 30.24 853 25.19 7.3 45.2 43 -4.4 24.1
10:15 1024 30.24 853 25.19 7.8 46.1 41 -4.6 23.7
10:20 1024 30.24 853 25.19 8 46.5 40 -4.7 23.6
10:25 1024 30.24 853 25.19 8.1 46.6 40 -4.6 23.8
10:30 1024 30.24 853 25.19 8.4 47.1 39 -4.7 23.5
10:35 1024 30.24 853 25.19 8.4 47.1 40 -4.4 24.1
10:40 1024 30.24 853 25.19 8.6 47.5 39 -4.4 24
10:45 1024 30.24 853 25.19 9.1 48.3 38 -4.4 24
10:50 1024 30.24 853 25.19 9.3 48.7 37 -4.6 23.8
10:55 1024 30.24 853 25.19 9.2 48.5 39 -4.1 24.7
11:00 1024 30.24 853 25.19 9.6 49.3 37 -4.3 24.2
11:05 1024 30.24 853 25.19 10 49.9 37 -4.1 24.6
11:10 1024 30.24 853 25.19 10.2 50.3 36 -4.3 24.3
11:15 1024 30.24 853 25.19 10.5 50.8 36 -4.1 24.6
11:20 1024 30.24 853 25.19 10.6 51.1 35 -4.2 24.5
11:25 1024 30.24 853 25.19 10.7 51.3 36 -3.8 25.2
11:30 1023 30.21 853 25.19 10.7 51.3 36 -3.7 25.4
11:35 1023 30.21 853 25.19 11.2 52.2 35 -3.8 25.2
11:40 1023 30.21 852 25.16 11.4 52.4 35 -3.4 25.9
11:45 1023 30.21 852 25.16 11.1 52 35 -3.7 25.3
11:50 1023 30.21 852 25.16 10.9 51.6 36 -3.7 25.3
11:55 1023 30.21 852 25.16 10.8 51.4 37 -3.5 25.8
12:00 1023 30.21 853 25.19 10.9 51.6 36 -3.6 25.5
12:05 1023 30.21 853 25.19 10.9 51.5 36 -3.6 25.5
12:10 1023 30.21 852 25.16 10.7 51.3 37 -3.3 26.1
12:15 1023 30.21 852 25.16 10.7 51.3 37 -3.3 26.1
12:20 1023 30.21 852 25.16 10.8 51.4 36 -3.8 25.2
12:25 1023 30.21 852 25.16 10.9 51.6 36 -3.6 25.6
12:30 1023 30.21 852 25.16 11 51.9 35 -3.8 25.2
12:35 1023 30.21 852 25.16 11.2 52.1 35 -3.8 25.1
12:40 1023 30.21 852 25.16 11.3 52.3 35 -3.7 25.4
12:45 1023 30.21 852 25.16 11.4 52.5 34 -3.9 24.9
12:50 1023 30.21 852 25.16 11.4 52.5 34 -3.8 25.2
12:55 1023 30.21 852 25.16 11.4 52.5 35 -3.7 25.4
13:00 1023 30.21 852 25.16 11.4 52.6 34 -3.7 25.4
13:05 1023 30.21 852 25.16 11.4 52.5 34 -3.7 25.4
13:10 1023 30.21 852 25.16 11.5 52.6 34 -3.8 25.1
13:15 1023 30.21 852 25.16 11.6 52.9 34 -3.5 25.7
13:20 1023 30.21 852 25.16 11.8 53.2 34 -3.6 25.5
13:25 1023 30.21 852 25.16 11.8 53.3 33 -3.7 25.4
13:30 1023 30.21 852 25.16 11.9 53.5 33 -3.8 25.2
13:35 1023 30.21 852 25.16 11.9 53.4 33 -3.8 25.2
13:40 1023 30.21 852 25.16 12 53.5 33 -3.7 25.3
13:45 1023 30.21 852 25.16 12.1 53.7 33 -3.6 25.5
13:50 1023 30.21 852 25.16 12.2 54 33 -3.5 25.8
13:55 1023 30.21 852 25.16 12.4 54.3 33 -3.5 25.7
14:00 1023 30.21 852 25.16 13.1 55.5 31 -3.6 25.6
14:05 1023 30.21 852 25.16 13.3 56 30 -3.8 25.1
14:10 1023 30.21 852 25.16 13.5 56.3 30 -3.6 25.5
14:15 1023 30.21 852 25.16 13.7 56.7 30 -3.5 25.8
14:20 1023 30.21 852 25.16 13.5 56.2 30 -3.6 25.6
14:25 1023 30.21 852 25.16 13.3 55.9 31 -3.6 25.6
14:30 1023 30.21 852 25.16 13.3 56 31 -3.5 25.8
14:35 1023 30.21 852 25.16 13.6 56.4 31 -3.1 26.4
14:40 1023 30.21 852 25.16 13.5 56.2 30 -3.8 25.2
14:45 1023 30.21 852 25.16 13.5 56.4 30 -3.5 25.7
14:50 1023 30.21 852 25.16 13.6 56.5 29 -3.8 25.1
14:55 1023 30.21 852 25.16 13.7 56.7 29 -3.8 25.2
15:00 1023 30.21 852 25.16 13.8 56.9 29 -3.7 25.4
15:05 1023 30.21 852 25.16 13.7 56.7 30 -3.6 25.6
15:10 1023 30.21 852 25.16 13.7 56.7 30 -3.5 25.7
15:15 1023 30.21 852 25.16 13.9 56.9 29 -3.7 25.3
15:20 1023 30.21 852 25.16 13.8 56.8 30 -3.6 25.6
15:25 1023 30.21 852 25.16 13.6 56.5 30 -3.6 25.5
15:30 1023 30.21 852 25.16 13.8 56.8 29 -3.7 25.4
15:35 1023 30.21 852 25.16 13.9 57.1 30 -3.4 25.9
15:40 1022 30.18 852 25.16 14.2 57.5 28 -4 24.8
15:45 1022 30.18 852 25.16 14.5 58.1 28 -3.7 25.3
15:50 1022 30.18 852 25.16 14.4 57.8 28 -3.8 25.2
15:55 1022 30.18 852 25.16 14.2 57.6 29 -3.6 25.5
16:00 1022 30.18 852 25.16 14.1 57.4 28 -3.9 25.1
16:05 1022 30.18 852 25.16 14.6 58.3 27 -4.1 24.6
16:10 1022 30.18 852 25.16 15 58.9 27 -3.6 25.5
16:15 1022 30.18 852 25.16 14.6 58.3 28 -3.5 25.7
16:20 1022 30.18 852 25.16 14.6 58.3 27 -3.9 25
16:25 1022 30.18 852 25.16 15.3 59.5 27 -3.7 25.3
16:30 1022 30.18 852 25.16 15.7 60.2 26 -3.6 25.6
16:35 1022 30.18 852 25.16 15.5 60 27 -3.4 25.8
16:40 1022 30.18 852 25.16 15.8 60.4 26 -3.7 25.4
16:45 1022 30.18 852 25.16 15.5 60 26 -3.6 25.5
16:50 1022 30.18 852 25.16 15.7 60.2 26 -4 24.9
16:55 1022 30.18 851 25.13 15.8 60.4 26 -3.7 25.4
17:00 1022 30.18 852 25.16 15.3 59.6 26 -3.9 25
17:05 1022 30.18 852 25.16 15.2 59.4 26 -4 24.8
17:10 1022 30.18 852 25.16 14.9 58.9 27 -3.6 25.5
17:15 1022 30.18 852 25.16 14.7 58.4 27 -4.2 24.5
17:20 1022 30.18 852 25.16 14.8 58.7 27 -3.8 25.1
17:25 1022 30.18 852 25.16 14.5 58.1 27 -4.1 24.5
17:30 1022 30.18 852 25.16 14.2 57.6 28 -4.1 24.6
17:35 1022 30.18 852 25.16 14.2 57.5 28 -4.2 24.5
17:40 1022 30.18 852 25.16 14.3 57.7 28 -4.1 24.7
17:45 1022 30.18 851 25.13 14.2 57.6 27 -4.3 24.3
17:50 1022 30.18 851 25.13 14.1 57.4 28 -4.2 24.4
17:55 1022 30.18 851 25.13 14.1 57.3 28 -4.3 24.3
18:00 1022 30.18 851 25.13 14 57.2 28 -4.4 24.1
18:05 1022 30.18 852 25.16 13.9 57.1 27 -4.6 23.7
18:10 1022 30.18 851 25.13 13.9 57 28 -4.3 24.2
18:15 1022 30.18 851 25.13 13.8 56.8 28 -4.1 24.6
18:20 1022 30.18 852 25.16 13.6 56.5 29 -4.2 24.5
18:25 1022 30.18 852 25.16 13.4 56.1 29 -4 24.8
18:30 1022 30.18 852 25.16 13.2 55.8 30 -4 24.8
18:35 1022 30.18 852 25.16 13.1 55.5 30 -3.9 25
18:40 1022 30.18 852 25.16 12.8 55 32 -3.4 25.8
18:45 1022 30.18 852 25.16 12.4 54.3 32 -3.7 25.3
18:50 1023 30.21 852 25.16 12.2 53.9 33 -3.8 25.2
18:55 1022 30.18 852 25.16 12 53.7 33 -3.9 25.1
19:00 1023 30.21 852 25.16 11.9 53.5 33 -3.9 25
19:05 1023 30.21 852 25.16 12 53.5 32 -4.2 24.5
19:10 1023 30.21 852 25.16 12 53.6 32 -4.1 24.6
19:15 1023 30.21 852 25.16 12 53.5 32 -4 24.8
19:20 1023 30.21 852 25.16 11.9 53.5 33 -3.9 25
19:25 1023 30.21 852 25.16 11.8 53.2 33 -3.7 25.3
19:30 1023 30.21 852 25.16 11.6 52.8 34 -3.5 25.7
19:35 1023 30.21 852 25.16 11.4 52.5 35 -3.5 25.7
19:40 1023 30.21 852 25.16 11.3 52.3 35 -3.6 25.5
19:45 1023 30.21 852 25.16 9.9 49.7 45 -1.5 29.3
19:50 1023 30.21 852 25.16 8.8 47.8 44 -2.8 26.9
19:55 1023 30.21 852 25.16 9.2 48.6 41 -3.3 26
20:00 1023 30.21 852 25.16 9.8 49.6 41 -2.7 27.2
20:05 1023 30.21 852 25.16 9.5 49.2 41 -3.1 26.5
20:10 1023 30.21 852 25.16 9.6 49.2 41 -3.1 26.4
20:15 1023 30.21 852 25.16 9.7 49.5 40 -3.2 26.3
20:20 1023 30.21 852 25.16 9.9 49.7 40 -3 26.5
20:25 1023 30.21 852 25.16 9.9 49.8 40 -3.2 26.3
20:30 1023 30.21 852 25.16 9.9 49.8 40 -3.1 26.4
20:35 1023 30.21 852 25.16 9.8 49.6 40 -3.2 26.3
20:40 1023 30.21 852 25.16 9.7 49.4 40 -3.1 26.4
20:45 1023 30.21 852 25.16 9.5 49.1 41 -3 26.6
20:50 1023 30.21 852 25.16 9.4 49 40 -3.3 26
20:55 1023 30.21 852 25.16 9.6 49.2 40 -3.3 26.1
21:00 1023 30.21 852 25.16 9.7 49.4 40 -3.3 26.1
21:05 1023 30.21 852 25.16 9.5 49.1 41 -2.9 26.7
21:10 1023 30.21 852 25.16 8.5 47.3 49 -1.6 29.1
21:15 1023 30.21 853 25.19 6.9 44.5 52 -2.3 27.9
21:20 1023 30.21 853 25.19 6.9 44.3 51 -2.5 27.5
21:25 1023 30.21 853 25.19 6.9 44.4 51 -2.5 27.5
21:30 1023 30.21 853 25.19 7 44.6 50 -2.6 27.2
21:35 1023 30.21 853 25.19 6.8 44.2 51 -2.5 27.5
21:40 1023 30.21 853 25.19 7 44.5 51 -2.4 27.6
21:45 1023 30.21 853 25.19 6.7 44 53 -2.2 28
21:50 1023 30.21 853 25.19 6.3 43.3 52 -2.7 27.1
21:55 1023 30.21 853 25.19 6.7 44.1 51 -2.6 27.4
22:00 1024 30.24 853 25.19 6.7 44.1 53 -2.3 27.9
22:05 1023 30.21 853 25.19 6.6 43.8 52 -2.6 27.4
22:10 1023 30.21 853 25.19 6.6 43.8 53 -2.4 27.6
22:15 1023 30.21 853 25.19 6.3 43.3 54 -2.3 27.9
22:20 1023 30.21 853 25.19 6.1 42.9 54 -2.5 27.6
22:25 1023 30.21 853 25.19 6 42.8 56 -2.2 28
22:30 1023 30.21 853 25.19 5.4 41.7 58 -2.3 27.8
22:35 1023 30.21 853 25.19 5.7 42.2 55 -2.7 27.1
22:40 1024 30.24 853 25.19 6 42.9 54 -2.6 27.4
22:45 1024 30.24 853 25.19 6.1 43 54 -2.6 27.3
22:50 1024 30.24 853 25.19 6.1 42.9 54 -2.5 27.5
22:55 1024 30.24 853 25.19 5.9 42.5 55 -2.4 27.7
23:00 1024 30.24 853 25.19 5.8 42.4 55 -2.4 27.6
23:05 1024 30.24 853 25.19 6 42.8 55 -2.4 27.6
23:10 1024 30.24 853 25.19 5.9 42.7 55 -2.3 27.8
23:15 1024 30.24 853 25.19 6 42.7 55 -2.5 27.5
23:20 1024 30.24 853 25.19 6.3 43.3 52 -2.9 26.8
23:25 1024 30.24 853 25.19 6.5 43.6 52 -2.7 27.2
23:30 1023 30.21 853 25.19 6.4 43.4 53 -2.6 27.4
23:35 1023 30.21 853 25.19 6 42.7 55 -2.4 27.7
23:40 1023 30.21 853 25.19 5.5 41.9 58 -2.1 28.2
23:45 1023 30.21 853 25.19 5.2 41.4 57 -2.7 27.1
23:50 1023 30.21 853 25.19 5.3 41.5 56 -2.6 27.2
23:55 1023 30.21 853 25.19 5.1 41.1 58 -2.4 27.7
24:00 1023 30.21 853 25.19 5 41.1 58 -2.5 27.5